sensor_id;sensor_type;location;lat;lon;timestamp;pressure;altitude;pressure_sealevel;temperature;humidity
13934;BME280;7039;52.168;9.866;2022-07-04T00:00:44;100830.72;;;17.31;77.64
13934;BME280;7039;52.168;9.866;2022-07-04T00:03:10;100831.06;;;17.26;77.81
13934;BME280;7039;52.168;9.866;2022-07-04T00:05:37;100835.03;;;17.32;76.93
13934;BME280;7039;52.168;9.866;2022-07-04T00:08:05;100827.00;;;17.33;77.27
13934;BME280;7039;52.168;9.866;2022-07-04T00:10:32;100826.38;;;17.30;77.21
13934;BME280;7039;52.168;9.866;2022-07-04T00:12:58;100826.63;;;17.27;77.16
13934;BME280;7039;52.168;9.866;2022-07-04T00:15:25;100814.84;;;17.20;77.13
13934;BME280;7039;52.168;9.866;2022-07-04T00:17:51;100828.63;;;17.23;76.96
13934;BME280;7039;52.168;9.866;2022-07-04T00:20:18;100825.53;;;17.29;76.59
13934;BME280;7039;52.168;9.866;2022-07-04T00:22:44;100831.16;;;17.25;76.98
13934;BME280;7039;52.168;9.866;2022-07-04T00:25:12;100831.06;;;17.26;77.77
13934;BME280;7039;52.168;9.866;2022-07-04T00:27:39;100831.72;;;17.17;77.41
13934;BME280;7039;52.168;9.866;2022-07-04T00:30:06;100836.25;;;17.15;77.52
13934;BME280;7039;52.168;9.866;2022-07-04T00:32:33;100836.78;;;17.07;77.79
13934;BME280;7039;52.168;9.866;2022-07-04T00:34:59;100839.66;;;17.04;78.42
13934;BME280;7039;52.168;9.866;2022-07-04T00:37:26;100830.50;;;16.84;79.18
13934;BME280;7039;52.168;9.866;2022-07-04T00:39:52;100826.09;;;16.85;79.11
13934;BME280;7039;52.168;9.866;2022-07-04T00:42:21;100818.31;;;16.83;79.45
13934;BME280;7039;52.168;9.866;2022-07-04T00:44:48;100828.41;;;16.77;80.30
13934;BME280;7039;52.168;9.866;2022-07-04T00:47:14;100830.41;;;16.73;80.62
13934;BME280;7039;52.168;9.866;2022-07-04T00:49:41;100829.78;;;16.69;81.41
13934;BME280;7039;52.168;9.866;2022-07-04T00:52:08;100836.97;;;16.67;81.83
13934;BME280;7039;52.168;9.866;2022-07-04T00:54:35;100826.50;;;16.66;82.06
13934;BME280;7039;52.168;9.866;2022-07-04T00:57:02;100834.31;;;16.55;81.62
13934;BME280;7039;52.168;9.866;2022-07-04T00:59:30;100839.25;;;16.59;82.51
13934;BME280;7039;52.168;9.866;2022-07-04T01:01:56;100840.56;;;16.54;82.12
13934;BME280;7039;52.168;9.866;2022-07-04T01:04:23;100845.38;;;16.60;82.42
13934;BME280;7039;52.168;9.866;2022-07-04T01:06:50;100838.94;;;16.64;82.51
13934;BME280;7039;52.168;9.866;2022-07-04T01:09:17;100839.59;;;16.67;82.27
13934;BME280;7039;52.168;9.866;2022-07-04T01:11:43;100831.78;;;16.66;81.61
13934;BME280;7039;52.168;9.866;2022-07-04T01:14:10;100828.41;;;16.64;81.54
13934;BME280;7039;52.168;9.866;2022-07-04T01:16:38;100829.78;;;16.57;81.38
13934;BME280;7039;52.168;9.866;2022-07-04T01:19:04;100833.81;;;16.49;81.88
13934;BME280;7039;52.168;9.866;2022-07-04T01:21:32;100836.34;;;16.51;81.65
13934;BME280;7039;52.168;9.866;2022-07-04T01:23:59;100831.91;;;16.52;81.79
13934;BME280;7039;52.168;9.866;2022-07-04T01:26:27;100832.84;;;16.50;81.86
13934;BME280;7039;52.168;9.866;2022-07-04T01:28:53;100835.06;;;16.31;82.57
13934;BME280;7039;52.168;9.866;2022-07-04T01:31:20;100840.22;;;16.33;82.94
13934;BME280;7039;52.168;9.866;2022-07-04T01:33:46;100833.16;;;16.20;83.53
13934;BME280;7039;52.168;9.866;2022-07-04T01:36:13;100838.19;;;16.23;83.06
13934;BME280;7039;52.168;9.866;2022-07-04T01:38:41;100837.91;;;16.15;83.70
13934;BME280;7039;52.168;9.866;2022-07-04T01:41:07;100840.31;;;16.18;83.53
13934;BME280;7039;52.168;9.866;2022-07-04T01:43:34;100844.94;;;16.27;83.23
13934;BME280;7039;52.168;9.866;2022-07-04T01:46:01;100843.56;;;16.09;84.27
13934;BME280;7039;52.168;9.866;2022-07-04T01:48:27;100841.81;;;16.22;83.00
13934;BME280;7039;52.168;9.866;2022-07-04T01:50:54;100839.16;;;16.22;82.33
13934;BME280;7039;52.168;9.866;2022-07-04T01:53:20;100841.50;;;16.27;82.79
13934;BME280;7039;52.168;9.866;2022-07-04T01:55:48;100848.84;;;16.22;82.91
13934;BME280;7039;52.168;9.866;2022-07-04T01:58:15;100842.13;;;16.18;82.70
13934;BME280;7039;52.168;9.866;2022-07-04T02:00:41;100841.81;;;16.22;82.41
13934;BME280;7039;52.168;9.866;2022-07-04T02:03:25;100840.53;;;16.15;81.89
13934;BME280;7039;52.168;9.866;2022-07-04T02:05:51;100839.47;;;16.18;81.84
13934;BME280;7039;52.168;9.866;2022-07-04T02:08:18;100837.47;;;16.21;81.74
13934;BME280;7039;52.168;9.866;2022-07-04T02:10:45;100826.94;;;16.21;81.88
13934;BME280;7039;52.168;9.866;2022-07-04T02:13:13;100829.69;;;16.20;81.85
13934;BME280;7039;52.168;9.866;2022-07-04T02:15:40;100826.63;;;16.13;82.05
13934;BME280;7039;52.168;9.866;2022-07-04T02:18:08;100833.56;;;16.01;82.90
13934;BME280;7039;52.168;9.866;2022-07-04T02:20:36;100837.44;;;15.83;83.27
13934;BME280;7039;52.168;9.866;2022-07-04T02:23:04;100839.19;;;15.82;83.09
13934;BME280;7039;52.168;9.866;2022-07-04T02:25:31;100845.63;;;15.64;83.39
13934;BME280;7039;52.168;9.866;2022-07-04T02:27:57;100843.13;;;15.62;83.70
13934;BME280;7039;52.168;9.866;2022-07-04T02:30:25;100834.00;;;15.41;84.86
13934;BME280;7039;52.168;9.866;2022-07-04T02:32:52;100839.94;;;15.30;85.61
13934;BME280;7039;52.168;9.866;2022-07-04T02:35:18;100842.47;;;15.32;85.56
13934;BME280;7039;52.168;9.866;2022-07-04T02:37:45;100836.81;;;15.38;84.92
13934;BME280;7039;52.168;9.866;2022-07-04T02:40:11;100848.94;;;15.40;84.27
13934;BME280;7039;52.168;9.866;2022-07-04T02:42:38;100854.56;;;15.34;84.78
13934;BME280;7039;52.168;9.866;2022-07-04T02:45:06;100856.28;;;15.21;85.43
13934;BME280;7039;52.168;9.866;2022-07-04T02:47:34;100856.97;;;15.10;85.87
13934;BME280;7039;52.168;9.866;2022-07-04T02:50:01;100851.84;;;14.94;86.52
13934;BME280;7039;52.168;9.866;2022-07-04T02:52:28;100861.78;;;14.89;86.67
13934;BME280;7039;52.168;9.866;2022-07-04T02:54:55;100866.66;;;14.95;86.65
13934;BME280;7039;52.168;9.866;2022-07-04T02:57:21;100868.41;;;15.09;85.18
13934;BME280;7039;52.168;9.866;2022-07-04T02:59:48;100872.00;;;15.08;85.44
13934;BME280;7039;52.168;9.866;2022-07-04T03:02:14;100866.81;;;15.07;85.57
13934;BME280;7039;52.168;9.866;2022-07-04T03:04:42;100873.94;;;15.19;85.35
13934;BME280;7039;52.168;9.866;2022-07-04T03:07:09;100864.00;;;15.10;85.39
13934;BME280;7039;52.168;9.866;2022-07-04T03:09:35;100874.16;;;15.01;85.65
13934;BME280;7039;52.168;9.866;2022-07-04T03:12:02;100881.19;;;14.87;86.61
13934;BME280;7039;52.168;9.866;2022-07-04T03:14:29;100874.91;;;14.75;86.91
13934;BME280;7039;52.168;9.866;2022-07-04T03:16:56;100880.72;;;14.66;87.38
13934;BME280;7039;52.168;9.866;2022-07-04T03:19:22;100884.38;;;14.63;88.07
13934;BME280;7039;52.168;9.866;2022-07-04T03:21:50;100880.69;;;14.51;88.69
13934;BME280;7039;52.168;9.866;2022-07-04T03:24:16;100890.94;;;14.56;88.91
13934;BME280;7039;52.168;9.866;2022-07-04T03:26:43;100892.78;;;14.54;89.03
13934;BME280;7039;52.168;9.866;2022-07-04T03:29:09;100898.91;;;14.54;88.83
13934;BME280;7039;52.168;9.866;2022-07-04T03:31:36;100897.94;;;14.55;88.91
13934;BME280;7039;52.168;9.866;2022-07-04T03:34:02;100895.38;;;14.39;89.59
13934;BME280;7039;52.168;9.866;2022-07-04T03:36:29;100907.72;;;14.68;88.57
13934;BME280;7039;52.168;9.866;2022-07-04T03:38:57;100907.72;;;14.82;87.83
13934;BME280;7039;52.168;9.866;2022-07-04T03:41:24;100908.88;;;14.92;87.19
13934;BME280;7039;52.168;9.866;2022-07-04T03:43:50;100912.41;;;15.06;86.71
13934;BME280;7039;52.168;9.866;2022-07-04T03:46:17;100911.09;;;14.98;86.79
13934;BME280;7039;52.168;9.866;2022-07-04T03:48:43;100911.47;;;15.07;86.53
13934;BME280;7039;52.168;9.866;2022-07-04T03:51:10;100905.75;;;15.14;86.26
13934;BME280;7039;52.168;9.866;2022-07-04T03:53:37;100911.47;;;15.07;86.45
13934;BME280;7039;52.168;9.866;2022-07-04T03:56:05;100922.00;;;15.07;86.49
13934;BME280;7039;52.168;9.866;2022-07-04T03:58:33;100923.88;;;15.04;86.80
13934;BME280;7039;52.168;9.866;2022-07-04T04:01:00;100928.56;;;15.14;86.38
13934;BME280;7039;52.168;9.866;2022-07-04T04:03:26;100925.19;;;15.12;86.78
13934;BME280;7039;52.168;9.866;2022-07-04T04:06:10;100927.81;;;15.26;85.53
13934;BME280;7039;52.168;9.866;2022-07-04T04:08:37;100922.63;;;15.24;85.51
13934;BME280;7039;52.168;9.866;2022-07-04T04:11:03;100925.16;;;15.40;84.48
13934;BME280;7039;52.168;9.866;2022-07-04T04:13:31;100925.31;;;15.52;84.33
13934;BME280;7039;52.168;9.866;2022-07-04T04:15:57;100932.72;;;15.59;84.31
13934;BME280;7039;52.168;9.866;2022-07-04T04:18:24;100927.63;;;15.71;84.08
13934;BME280;7039;52.168;9.866;2022-07-04T04:20:50;100931.97;;;15.72;83.96
13934;BME280;7039;52.168;9.866;2022-07-04T04:23:17;100923.97;;;15.59;84.34
13934;BME280;7039;52.168;9.866;2022-07-04T04:25:45;100931.63;;;15.35;85.41
13934;BME280;7039;52.168;9.866;2022-07-04T04:28:12;100937.84;;;15.19;86.34
13934;BME280;7039;52.168;9.866;2022-07-04T04:30:40;100935.31;;;15.18;87.28
13934;BME280;7039;52.168;9.866;2022-07-04T04:33:06;100932.03;;;15.14;87.40
13934;BME280;7039;52.168;9.866;2022-07-04T04:35:33;100947.63;;;15.17;87.48
13934;BME280;7039;52.168;9.866;2022-07-04T04:37:59;100947.34;;;15.22;87.29
13934;BME280;7039;52.168;9.866;2022-07-04T04:40:26;100951.25;;;15.29;87.24
13934;BME280;7039;52.168;9.866;2022-07-04T04:42:52;100955.19;;;15.36;87.52
13934;BME280;7039;52.168;9.866;2022-07-04T04:45:19;100951.59;;;15.52;86.47
13934;BME280;7039;52.168;9.866;2022-07-04T04:47:46;100960.97;;;15.70;85.76
13934;BME280;7039;52.168;9.866;2022-07-04T04:50:13;100955.69;;;15.84;84.63
13934;BME280;7039;52.168;9.866;2022-07-04T04:52:41;100968.16;;;15.95;84.66
13934;BME280;7039;52.168;9.866;2022-07-04T04:55:07;100970.38;;;16.01;84.99
13934;BME280;7039;52.168;9.866;2022-07-04T04:57:34;100962.53;;;15.87;86.60
13934;BME280;7039;52.168;9.866;2022-07-04T05:00:01;100969.94;;;15.95;85.53
13934;BME280;7039;52.168;9.866;2022-07-04T05:02:29;100971.59;;;16.10;84.86
13934;BME280;7039;52.168;9.866;2022-07-04T05:04:57;100969.72;;;16.25;84.34
13934;BME280;7039;52.168;9.866;2022-07-04T05:07:24;100972.56;;;16.35;84.21
13934;BME280;7039;52.168;9.866;2022-07-04T05:09:50;100972.91;;;16.43;84.60
13934;BME280;7039;52.168;9.866;2022-07-04T05:12:23;100973.34;;;16.49;85.31
13934;BME280;7039;52.168;9.866;2022-07-04T05:14:50;100977.44;;;16.41;87.00
13934;BME280;7039;52.168;9.866;2022-07-04T05:17:16;100980.50;;;16.47;85.32
13934;BME280;7039;52.168;9.866;2022-07-04T05:19:43;100985.59;;;16.63;84.34
13934;BME280;7039;52.168;9.866;2022-07-04T05:22:11;100973.91;;;16.67;86.73
13934;BME280;7039;52.168;9.866;2022-07-04T05:24:37;100978.44;;;16.65;86.44
13934;BME280;7039;52.168;9.866;2022-07-04T05:27:04;100979.81;;;16.71;86.70
13934;BME280;7039;52.168;9.866;2022-07-04T05:29:31;100979.50;;;16.63;86.92
13934;BME280;7039;52.168;9.866;2022-07-04T05:31:58;100978.75;;;16.61;87.81
13934;BME280;7039;52.168;9.866;2022-07-04T05:34:24;100978.09;;;16.57;87.45
13934;BME280;7039;52.168;9.866;2022-07-04T05:36:51;100976.31;;;16.58;87.94
13934;BME280;7039;52.168;9.866;2022-07-04T05:39:19;100986.97;;;16.69;88.17
13934;BME280;7039;52.168;9.866;2022-07-04T05:41:45;100980.91;;;16.81;88.20
13934;BME280;7039;52.168;9.866;2022-07-04T05:44:11;100978.59;;;17.02;87.09
13934;BME280;7039;52.168;9.866;2022-07-04T05:46:38;100976.69;;;17.17;86.42
13934;BME280;7039;52.168;9.866;2022-07-04T05:49:04;100970.25;;;17.08;86.59
13934;BME280;7039;52.168;9.866;2022-07-04T05:51:31;100964.78;;;17.11;86.75
13934;BME280;7039;52.168;9.866;2022-07-04T05:53:57;100968.38;;;17.10;87.25
13934;BME280;7039;52.168;9.866;2022-07-04T05:56:25;100978.78;;;17.25;87.31
13934;BME280;7039;52.168;9.866;2022-07-04T05:58:52;100982.38;;;17.24;86.71
13934;BME280;7039;52.168;9.866;2022-07-04T06:01:19;100984.06;;;17.25;86.63
13934;BME280;7039;52.168;9.866;2022-07-04T06:03:45;100975.00;;;17.29;87.05
13934;BME280;7039;52.168;9.866;2022-07-04T06:06:12;100975.81;;;17.29;87.55
13934;BME280;7039;52.168;9.866;2022-07-04T06:08:38;100977.22;;;17.22;86.92
13934;BME280;7039;52.168;9.866;2022-07-04T06:11:05;100975.22;;;17.13;86.30
13934;BME280;7039;52.168;9.866;2022-07-04T06:13:33;100976.56;;;17.19;87.38
13934;BME280;7039;52.168;9.866;2022-07-04T06:15:59;100974.75;;;17.32;87.87
13934;BME280;7039;52.168;9.866;2022-07-04T06:18:26;100974.09;;;17.41;86.86
13934;BME280;7039;52.168;9.866;2022-07-04T06:20:52;100973.44;;;17.50;85.77
13934;BME280;7039;52.168;9.866;2022-07-04T06:23:19;100965.84;;;17.59;85.67
13934;BME280;7039;52.168;9.866;2022-07-04T06:25:45;100966.75;;;17.70;85.31
13934;BME280;7039;52.168;9.866;2022-07-04T06:28:12;100964.41;;;17.79;83.70
13934;BME280;7039;52.168;9.866;2022-07-04T06:30:43;100962.72;;;17.78;83.27
13934;BME280;7039;52.168;9.866;2022-07-04T06:33:10;100957.56;;;17.76;83.07
13934;BME280;7039;52.168;9.866;2022-07-04T06:35:36;100965.50;;;17.76;83.01
13934;BME280;7039;52.168;9.866;2022-07-04T06:38:12;100973.56;;;17.99;81.43
13934;BME280;7039;52.168;9.866;2022-07-04T06:40:39;100970.50;;;18.16;82.42
13934;BME280;7039;52.168;9.866;2022-07-04T06:43:06;100968.75;;;18.28;80.47
13934;BME280;7039;52.168;9.866;2022-07-04T06:45:33;100966.97;;;18.28;79.63
13934;BME280;7039;52.168;9.866;2022-07-04T06:48:01;100971.25;;;18.53;79.07
13934;BME280;7039;52.168;9.866;2022-07-04T06:50:28;100973.38;;;18.48;79.47
13934;BME280;7039;52.168;9.866;2022-07-04T06:52:58;100971.06;;;18.44;79.56
13934;BME280;7039;52.168;9.866;2022-07-04T06:55:24;100969.31;;;18.44;79.49
13934;BME280;7039;52.168;9.866;2022-07-04T06:58:03;100977.50;;;18.64;78.91
13934;BME280;7039;52.168;9.866;2022-07-04T07:00:30;100978.03;;;18.80;78.01
13934;BME280;7039;52.168;9.866;2022-07-04T07:02:57;100971.38;;;18.63;75.99
13934;BME280;7039;52.168;9.866;2022-07-04T07:05:25;100969.22;;;18.68;76.04
13934;BME280;7039;52.168;9.866;2022-07-04T07:07:52;100970.56;;;18.74;74.86
13934;BME280;7039;52.168;9.866;2022-07-04T07:10:19;100976.69;;;18.74;74.21
13934;BME280;7039;52.168;9.866;2022-07-04T07:12:46;100967.38;;;18.82;74.58
13934;BME280;7039;52.168;9.866;2022-07-04T07:15:12;100964.97;;;18.78;72.74
13934;BME280;7039;52.168;9.866;2022-07-04T07:17:39;100963.16;;;18.79;72.17
13934;BME280;7039;52.168;9.866;2022-07-04T07:20:07;100979.78;;;19.04;72.71
13934;BME280;7039;52.168;9.866;2022-07-04T07:22:35;100978.34;;;19.22;72.04
13934;BME280;7039;52.168;9.866;2022-07-04T07:25:02;100976.53;;;19.34;71.92
13934;BME280;7039;52.168;9.866;2022-07-04T07:27:28;100970.88;;;19.27;70.84
13934;BME280;7039;52.168;9.866;2022-07-04T07:29:55;100967.03;;;19.09;70.20
13934;BME280;7039;52.168;9.866;2022-07-04T07:32:21;100967.50;;;19.14;70.13
13934;BME280;7039;52.168;9.866;2022-07-04T07:34:48;100977.97;;;19.27;69.93
13934;BME280;7039;52.168;9.866;2022-07-04T07:37:14;100984.34;;;19.47;69.10
13934;BME280;7039;52.168;9.866;2022-07-04T07:39:44;100972.56;;;19.51;65.79
13934;BME280;7039;52.168;9.866;2022-07-04T07:42:13;100985.06;;;19.60;66.70
13934;BME280;7039;52.168;9.866;2022-07-04T07:44:40;100980.81;;;19.57;65.39
13934;BME280;7039;52.168;9.866;2022-07-04T07:47:06;100969.63;;;19.65;65.11
13934;BME280;7039;52.168;9.866;2022-07-04T07:49:33;100970.94;;;19.82;66.47
13934;BME280;7039;52.168;9.866;2022-07-04T07:51:59;100969.63;;;19.88;65.25
13934;BME280;7039;52.168;9.866;2022-07-04T07:54:26;100966.91;;;19.55;65.14
13934;BME280;7039;52.168;9.866;2022-07-04T07:56:54;100972.94;;;19.35;65.40
13934;BME280;7039;52.168;9.866;2022-07-04T07:59:20;100975.31;;;19.27;66.36
13934;BME280;7039;52.168;9.866;2022-07-04T08:01:47;100981.81;;;19.34;67.30
13934;BME280;7039;52.168;9.866;2022-07-04T08:04:13;100976.16;;;19.50;66.69
13934;BME280;7039;52.168;9.866;2022-07-04T08:06:57;100973.72;;;19.80;66.83
13934;BME280;7039;52.168;9.866;2022-07-04T08:09:24;100968.59;;;20.00;64.04
13934;BME280;7039;52.168;9.866;2022-07-04T08:11:51;100964.34;;;20.09;62.22
13934;BME280;7039;52.168;9.866;2022-07-04T08:14:19;100960.63;;;20.32;61.39
13934;BME280;7039;52.168;9.866;2022-07-04T08:16:45;100950.84;;;20.44;62.84
13934;BME280;7039;52.168;9.866;2022-07-04T08:19:12;100957.66;;;20.58;63.02
13934;BME280;7039;52.168;9.866;2022-07-04T08:21:38;100960.09;;;20.71;62.91
13934;BME280;7039;52.168;9.866;2022-07-04T08:24:05;100956.59;;;20.49;62.65
13934;BME280;7039;52.168;9.866;2022-07-04T08:26:32;100951.28;;;20.28;62.95
13934;BME280;7039;52.168;9.866;2022-07-04T08:28:59;100952.56;;;20.34;62.55
13934;BME280;7039;52.168;9.866;2022-07-04T08:31:27;100956.28;;;20.63;62.28
13934;BME280;7039;52.168;9.866;2022-07-04T08:33:53;100960.88;;;20.82;60.24
13934;BME280;7039;52.168;9.866;2022-07-04T08:36:20;100954.59;;;20.83;59.73
13934;BME280;7039;52.168;9.866;2022-07-04T08:38:47;100954.84;;;20.80;60.45
13934;BME280;7039;52.168;9.866;2022-07-04T08:41:16;100955.88;;;20.68;59.36
13934;BME280;7039;52.168;9.866;2022-07-04T08:43:42;100947.06;;;20.26;60.16
13934;BME280;7039;52.168;9.866;2022-07-04T08:46:12;100950.13;;;20.42;60.40
13934;BME280;7039;52.168;9.866;2022-07-04T08:48:50;100953.13;;;20.70;58.52
13934;BME280;7039;52.168;9.866;2022-07-04T08:51:25;100954.94;;;20.69;59.28
13934;BME280;7039;52.168;9.866;2022-07-04T08:53:56;100946.13;;;20.69;59.71
13934;BME280;7039;52.168;9.866;2022-07-04T08:56:24;100954.72;;;20.61;59.36
13934;BME280;7039;52.168;9.866;2022-07-04T08:59:09;100950.63;;;20.78;59.66
13934;BME280;7039;52.168;9.866;2022-07-04T09:01:36;100951.66;;;20.86;58.14
13934;BME280;7039;52.168;9.866;2022-07-04T09:04:08;100960.75;;;21.15;58.97
13934;BME280;7039;52.168;9.866;2022-07-04T09:06:37;100951.47;;;20.99;58.19
13934;BME280;7039;52.168;9.866;2022-07-04T09:09:04;100965.97;;;21.26;59.11
13934;BME280;7039;52.168;9.866;2022-07-04T09:11:33;100968.56;;;21.57;57.25
13934;BME280;7039;52.168;9.866;2022-07-04T09:13:59;100956.81;;;21.50;57.20
13934;BME280;7039;52.168;9.866;2022-07-04T09:16:26;100966.50;;;21.51;56.34
13934;BME280;7039;52.168;9.866;2022-07-04T09:18:53;100970.16;;;20.98;55.66
13934;BME280;7039;52.168;9.866;2022-07-04T09:21:23;100962.28;;;20.65;57.10
13934;BME280;7039;52.168;9.866;2022-07-04T09:24:08;100964.47;;;20.39;57.17
13934;BME280;7039;52.168;9.866;2022-07-04T09:26:39;100962.50;;;20.41;56.64
13934;BME280;7039;52.168;9.866;2022-07-04T09:29:06;100960.44;;;20.56;55.62
13934;BME280;7039;52.168;9.866;2022-07-04T09:31:33;100953.28;;;20.78;56.25
13934;BME280;7039;52.168;9.866;2022-07-04T09:34:01;100955.34;;;20.95;54.48
13934;BME280;7039;52.168;9.866;2022-07-04T09:36:32;100964.84;;;21.28;55.31
13934;BME280;7039;52.168;9.866;2022-07-04T09:39:10;100956.53;;;21.43;53.84
13934;BME280;7039;52.168;9.866;2022-07-04T09:41:58;100957.19;;;21.35;52.35
13934;BME280;7039;52.168;9.866;2022-07-04T09:44:26;100959.69;;;21.37;54.06
13934;BME280;7039;52.168;9.866;2022-07-04T09:46:54;100956.53;;;21.43;48.56
13934;BME280;7039;52.168;9.866;2022-07-04T09:49:22;100956.00;;;21.49;48.22
13934;BME280;7039;52.168;9.866;2022-07-04T09:51:51;100945.44;;;21.78;49.25
13934;BME280;7039;52.168;9.866;2022-07-04T09:54:21;100947.53;;;22.04;50.06
13934;BME280;7039;52.168;9.866;2022-07-04T09:56:53;100957.78;;;22.28;52.38
13934;BME280;7039;52.168;9.866;2022-07-04T09:59:21;100949.53;;;22.21;50.92
13934;BME280;7039;52.168;9.866;2022-07-04T10:01:48;100942.94;;;22.25;52.30
13934;BME280;7039;52.168;9.866;2022-07-04T10:04:15;100946.47;;;22.26;50.17
13934;BME280;7039;52.168;9.866;2022-07-04T10:06:42;100939.03;;;22.10;48.96
13934;BME280;7039;52.168;9.866;2022-07-04T10:09:13;100935.34;;;21.62;47.97
13934;BME280;7039;52.168;9.866;2022-07-04T10:11:42;100941.91;;;21.78;48.74
13934;BME280;7039;52.168;9.866;2022-07-04T10:14:10;100938.03;;;21.92;48.36
13934;BME280;7039;52.168;9.866;2022-07-04T10:16:38;100936.06;;;21.84;50.40
13934;BME280;7039;52.168;9.866;2022-07-04T10:19:05;100928.53;;;21.99;48.81
13934;BME280;7039;52.168;9.866;2022-07-04T10:21:32;100929.13;;;22.22;48.98
13934;BME280;7039;52.168;9.866;2022-07-04T10:24:02;100930.22;;;22.29;48.40
13934;BME280;7039;52.168;9.866;2022-07-04T10:26:31;100929.63;;;22.16;48.32
13934;BME280;7039;52.168;9.866;2022-07-04T10:28:58;100926.97;;;22.16;49.64
13934;BME280;7039;52.168;9.866;2022-07-04T10:31:26;100923.91;;;22.20;48.18
13934;BME280;7039;52.168;9.866;2022-07-04T10:33:55;100930.91;;;22.31;49.44
13934;BME280;7039;52.168;9.866;2022-07-04T10:36:24;100934.66;;;22.58;49.63
13934;BME280;7039;52.168;9.866;2022-07-04T10:38:55;100933.41;;;22.52;46.54
13934;BME280;7039;52.168;9.866;2022-07-04T10:41:24;100927.97;;;22.44;45.05
13934;BME280;7039;52.168;9.866;2022-07-04T10:43:53;100924.38;;;22.72;47.49
13934;BME280;7039;52.168;9.866;2022-07-04T10:46:29;100923.25;;;22.85;48.55
13934;BME280;7039;52.168;9.866;2022-07-04T10:48:57;100908.69;;;22.79;47.60
13934;BME280;7039;52.168;9.866;2022-07-04T10:51:39;100911.16;;;22.53;47.12
13934;BME280;7039;52.168;9.866;2022-07-04T10:54:09;100911.66;;;22.76;47.89
13934;BME280;7039;52.168;9.866;2022-07-04T10:56:52;100916.19;;;22.93;47.92
13934;BME280;7039;52.168;9.866;2022-07-04T10:59:22;100909.50;;;22.89;47.29
13934;BME280;7039;52.168;9.866;2022-07-04T11:04:51;100911.31;;;22.89;45.61
13934;BME280;7039;52.168;9.866;2022-07-04T11:07:19;100913.09;;;23.08;46.45
13934;BME280;7039;52.168;9.866;2022-07-04T11:09:46;100919.63;;;23.41;44.92
13934;BME280;7039;52.168;9.866;2022-07-04T11:12:32;100921.56;;;23.21;47.70
13934;BME280;7039;52.168;9.866;2022-07-04T11:15:00;100913.81;;;22.90;45.94
13934;BME280;7039;52.168;9.866;2022-07-04T11:17:27;100918.56;;;23.06;46.45
13934;BME280;7039;52.168;9.866;2022-07-04T11:19:59;100910.81;;;23.13;45.22
13934;BME280;7039;52.168;9.866;2022-07-04T11:22:26;100898.91;;;23.17;44.62
13934;BME280;7039;52.168;9.866;2022-07-04T11:24:52;100901.38;;;23.46;44.46
13934;BME280;7039;52.168;9.866;2022-07-04T11:27:20;100900.94;;;23.51;45.12
13934;BME280;7039;52.168;9.866;2022-07-04T11:29:49;100900.63;;;23.54;44.50
13934;BME280;7039;52.168;9.866;2022-07-04T11:32:18;100899.97;;;23.88;43.19
13934;BME280;7039;52.168;9.866;2022-07-04T11:34:44;100895.13;;;23.83;45.86
13934;BME280;7039;52.168;9.866;2022-07-04T11:37:11;100893.38;;;23.28;45.71
13934;BME280;7039;52.168;9.866;2022-07-04T11:39:38;100886.31;;;23.37;46.66
13934;BME280;7039;52.168;9.866;2022-07-04T11:42:05;100886.06;;;23.76;44.48
13934;BME280;7039;52.168;9.866;2022-07-04T11:44:49;100893.00;;;23.87;44.80
13934;BME280;7039;52.168;9.866;2022-07-04T11:47:34;100893.59;;;23.99;44.90
13934;BME280;7039;52.168;9.866;2022-07-04T11:50:03;100894.44;;;24.25;43.33
13934;BME280;7039;52.168;9.866;2022-07-04T11:52:38;100891.94;;;24.24;44.97
13934;BME280;7039;52.168;9.866;2022-07-04T11:55:07;100895.59;;;24.23;43.24
13934;BME280;7039;52.168;9.866;2022-07-04T11:57:35;100896.28;;;24.69;42.61
13934;BME280;7039;52.168;9.866;2022-07-04T12:00:05;100900.06;;;24.66;42.26
13934;BME280;7039;52.168;9.866;2022-07-04T12:02:33;100898.25;;;25.01;42.10
13934;BME280;7039;52.168;9.866;2022-07-04T12:05:00;100897.50;;;24.83;42.34
13934;BME280;7039;52.168;9.866;2022-07-04T12:07:28;100891.31;;;24.82;41.71
13934;BME280;7039;52.168;9.866;2022-07-04T12:10:06;100891.94;;;25.53;40.32
13934;BME280;7039;52.168;9.866;2022-07-04T12:12:34;100896.28;;;25.62;39.83
13934;BME280;7039;52.168;9.866;2022-07-04T12:15:03;100902.31;;;25.80;39.77
13934;BME280;7039;52.168;9.866;2022-07-04T12:17:34;100894.78;;;25.84;39.85
13934;BME280;7039;52.168;9.866;2022-07-04T12:20:03;100887.56;;;25.52;39.48
13934;BME280;7039;52.168;9.866;2022-07-04T12:22:35;100886.09;;;25.66;41.98
13934;BME280;7039;52.168;9.866;2022-07-04T12:25:04;100881.28;;;26.18;40.48
13934;BME280;7039;52.168;9.866;2022-07-04T12:27:32;100874.78;;;26.04;39.97
13934;BME280;7039;52.168;9.866;2022-07-04T12:29:59;100882.41;;;25.75;40.42
13934;BME280;7039;52.168;9.866;2022-07-04T12:32:52;100879.25;;;25.63;40.30
13934;BME280;7039;52.168;9.866;2022-07-04T12:35:38;100883.78;;;26.28;41.45
13934;BME280;7039;52.168;9.866;2022-07-04T12:38:07;100883.53;;;26.71;39.51
13934;BME280;7039;52.168;9.866;2022-07-04T12:40:34;100879.38;;;26.52;39.14
13934;BME280;7039;52.168;9.866;2022-07-04T12:43:01;100902.91;;;26.89;39.53
13934;BME280;7039;52.168;9.866;2022-07-04T12:45:42;100890.78;;;26.29;40.84
13934;BME280;7039;52.168;9.866;2022-07-04T12:48:22;100879.78;;;26.24;38.94
13934;BME280;7039;52.168;9.866;2022-07-04T12:50:49;100876.53;;;26.53;41.54
13934;BME280;7039;52.168;9.866;2022-07-04T12:53:16;100880.88;;;27.10;38.44
13934;BME280;7039;52.168;9.866;2022-07-04T12:55:44;100892.22;;;27.52;40.10
13934;BME280;7039;52.168;9.866;2022-07-04T12:58:12;100884.38;;;27.73;37.89
13934;BME280;7039;52.168;9.866;2022-07-04T13:00:40;100874.66;;;27.95;37.79
13934;BME280;7039;52.168;9.866;2022-07-04T13:03:07;100878.69;;;28.14;38.01
13934;BME280;7039;52.168;9.866;2022-07-04T13:05:36;100884.28;;;28.27;37.27
13934;BME280;7039;52.168;9.866;2022-07-04T13:08:03;100877.75;;;26.98;37.90